Washington, District of Columbia
Traffic Map
Current Weather Conditions
Washington, District of Columbia
Few Clouds
Few Clouds
59°
Feels Like: 59°
Wind Chill: 59° Ceiling: Unl
Heat Index: 59° Visibility: 10mi
Dew Point: 45° Wind: 5mph
Humidity: 60% Direction: 160° (SSE)
Pressure: 29.98in Gusts: 0mph
Raw Report DataKDCA 251352Z 16004KT 10SM FEW150 15/07 A2998 RMK AO2 SLP151 T01500072
Traffic Incident Summary
Active as of:
Severity:
Category:
InformationThere was an issue retrieving the traffic information for this location. Please try a different location or try again shortly.
Advertisements
Track Severe Weather on mobile